createdAt,value
2018-02-05T00:02:21.860Z,23.83
2018-02-05T00:04:49.353Z,25.58
2018-02-05T00:07:16.948Z,25.25
2018-02-05T00:09:44.659Z,26.27
2018-02-05T00:12:12.251Z,25.20
2018-02-05T00:14:40.684Z,23.73
2018-02-05T00:17:08.265Z,24.85
2018-02-05T00:19:35.849Z,24.87
2018-02-05T00:22:03.425Z,25.20
2018-02-05T00:24:31.796Z,25.55
2018-02-05T00:27:00.143Z,24.08
2018-02-05T00:29:28.192Z,24.25
2018-02-05T00:31:55.776Z,24.45
2018-02-05T00:34:23.357Z,23.62
2018-02-05T00:36:51.710Z,24.17
2018-02-05T00:39:19.316Z,23.58
2018-02-05T00:41:47.675Z,25.75
2018-02-05T00:44:16.030Z,24.52
2018-02-05T00:46:43.720Z,24.20
2018-02-05T00:49:12.104Z,24.37
2018-02-05T00:51:41.452Z,24.90
2018-02-05T00:54:09.076Z,25.98
2018-02-05T00:56:36.720Z,25.02
2018-02-05T00:59:05.095Z,25.90
2018-02-05T01:01:32.673Z,24.77
2018-02-05T01:04:01.042Z,24.75
2018-02-05T01:06:29.379Z,24.48
2018-02-05T01:08:56.993Z,25.15
2018-02-05T01:11:25.329Z,25.27
2018-02-05T01:13:52.925Z,26.17
2018-02-05T01:16:21.301Z,25.85
2018-02-05T01:18:49.681Z,25.77
2018-02-05T01:21:18.037Z,26.17
2018-02-05T01:23:45.621Z,26.20
2018-02-05T01:26:13.986Z,26.92
2018-02-05T01:28:41.658Z,27.75
2018-02-05T01:31:10.035Z,27.10
2018-02-05T01:33:38.574Z,27.62
2018-02-05T01:36:06.159Z,25.30
2018-02-05T01:38:33.772Z,24.33
2018-02-05T01:41:01.353Z,26.00
2018-02-05T01:43:28.933Z,23.80
2018-02-05T01:45:56.524Z,25.50
2018-02-05T01:48:24.857Z,25.35
2018-02-05T01:50:52.454Z,25.05
2018-02-05T01:53:20.036Z,26.08
2018-02-05T01:55:48.378Z,25.52
2018-02-05T01:58:16.080Z,24.92
2018-02-05T02:00:43.673Z,25.98
2018-02-05T02:03:11.283Z,24.87
2018-02-05T02:05:39.632Z,25.27
2018-02-05T02:08:07.221Z,25.30
2018-02-05T02:10:35.617Z,23.87
2018-02-05T02:13:03.200Z,23.65
2018-02-05T02:15:30.803Z,23.40
2018-02-05T02:17:58.383Z,24.25
2018-02-05T02:20:26.734Z,24.05
2018-02-05T02:22:54.333Z,24.37
2018-02-05T02:25:22.702Z,23.15
2018-02-05T02:27:51.083Z,22.95
2018-02-05T02:30:19.464Z,22.55
2018-02-05T02:32:47.838Z,23.38
2018-02-05T02:35:16.195Z,25.37
2018-02-05T02:37:43.885Z,23.65
2018-02-05T02:40:12.286Z,23.73
2018-02-05T02:42:39.857Z,23.85
2018-02-05T02:45:07.484Z,23.48
2018-02-05T02:47:36.502Z,24.00
2018-02-05T02:50:04.199Z,23.38
2018-02-05T02:52:31.811Z,22.90
2018-02-05T02:55:00.243Z,23.58
2018-02-05T02:57:27.824Z,22.90
2018-02-05T02:59:56.928Z,23.67
2018-02-05T03:02:24.521Z,24.37
2018-02-05T03:04:52.160Z,24.70
2018-02-05T03:07:19.748Z,23.92
2018-02-05T03:09:47.330Z,24.20
2018-02-05T03:12:14.919Z,25.62
2018-02-05T03:14:42.503Z,23.85
2018-02-05T03:17:10.878Z,24.67
2018-02-05T03:19:39.225Z,24.15
2018-02-05T03:22:06.817Z,24.98
2018-02-05T03:24:35.179Z,23.58
2018-02-05T03:27:02.752Z,25.90
2018-02-05T03:29:31.128Z,23.92
2018-02-05T03:31:59.513Z,25.23
2018-02-05T03:34:27.865Z,25.10
2018-02-05T03:36:55.464Z,24.48
2018-02-05T03:39:23.826Z,25.25
2018-02-05T03:41:51.501Z,24.17
2018-02-05T03:44:19.843Z,24.25
2018-02-05T03:46:47.420Z,25.55
2018-02-05T03:49:15.785Z,23.50
2018-02-05T03:51:43.361Z,24.42
2018-02-05T03:54:11.025Z,24.17
2018-02-05T03:56:38.693Z,23.90
2018-02-05T03:59:07.065Z,25.02
2018-02-05T04:01:35.420Z,25.17
2018-02-05T04:04:03.009Z,25.90
2018-02-05T04:06:32.144Z,23.90
2018-02-05T04:08:59.773Z,25.52
2018-02-05T04:11:28.149Z,24.48
2018-02-05T04:13:56.525Z,24.48
2018-02-05T04:16:24.102Z,24.02
2018-02-05T04:18:52.476Z,24.52
2018-02-05T04:21:20.822Z,24.60
2018-02-05T04:23:48.528Z,24.12
2018-02-05T04:26:16.164Z,23.70
2018-02-05T04:28:45.243Z,25.73
2018-02-05T04:31:12.859Z,24.23
2018-02-05T04:33:40.431Z,24.52
2018-02-05T04:36:08.054Z,25.98
2018-02-05T04:38:36.471Z,27.20
2018-02-05T04:41:04.080Z,25.33
2018-02-05T04:43:32.468Z,26.05
2018-02-05T04:46:00.840Z,25.80
2018-02-05T04:48:29.233Z,25.35
2018-02-05T04:50:57.609Z,26.80
2018-02-05T04:53:26.016Z,28.50
2018-02-05T04:55:53.616Z,28.38
2018-02-05T04:58:21.197Z,27.92
2018-02-05T05:00:49.537Z,29.15
2018-02-05T05:03:17.127Z,30.42
2018-02-05T05:05:45.489Z,30.15
2018-02-05T05:08:13.076Z,27.58
2018-02-05T05:10:42.183Z,29.12
2018-02-05T05:13:10.586Z,27.75
2018-02-05T05:15:38.164Z,29.52
2018-02-05T05:18:05.778Z,27.62
2018-02-05T05:20:34.117Z,28.27
2018-02-05T05:23:01.721Z,29.40
2018-02-05T05:25:30.060Z,29.20
2018-02-05T05:27:57.660Z,26.95
2018-02-05T05:30:26.042Z,27.77
2018-02-05T05:32:54.424Z,27.92
2018-02-05T05:35:22.783Z,28.90
2018-02-05T05:37:50.457Z,28.58
2018-02-05T05:40:18.824Z,29.12
2018-02-05T05:42:46.497Z,27.92
2018-02-05T05:45:14.869Z,28.73
2018-02-05T05:47:42.543Z,27.92
2018-02-05T05:50:10.891Z,27.77
2018-02-05T05:52:38.572Z,28.48
2018-02-05T05:55:06.180Z,34.83
2018-02-05T05:57:33.774Z,29.95
2018-02-05T06:00:01.352Z,30.62
2018-02-05T06:02:28.940Z,30.30
2018-02-05T06:04:57.166Z,28.45
2018-02-05T06:07:24.853Z,28.83
2018-02-05T06:09:52.437Z,32.08
2018-02-05T06:12:20.021Z,30.52
2018-02-05T06:14:47.644Z,32.10
2018-02-05T06:17:15.984Z,33.42
2018-02-05T06:19:43.579Z,34.33
2018-02-05T06:22:12.047Z,35.83
2018-02-05T06:24:39.818Z,33.00
2018-02-05T06:27:07.485Z,32.63
2018-02-05T06:29:35.862Z,30.60
2018-02-05T06:32:04.235Z,32.22
2018-02-05T06:34:31.904Z,30.70
2018-02-05T06:37:00.258Z,30.90
2018-02-05T06:39:27.844Z,30.65
2018-02-05T06:41:56.188Z,30.52
2018-02-05T06:44:23.878Z,29.20
2018-02-05T06:46:51.554Z,31.42
2018-02-05T06:49:19.933Z,45.05
2018-02-05T06:52:00.063Z,33.75
2018-02-05T06:54:39.522Z,30.83
2018-02-05T06:57:07.877Z,31.05
2018-02-05T06:59:35.552Z,30.83
2018-02-05T07:02:03.221Z,30.67
2018-02-05T07:04:31.564Z,30.02
2018-02-05T07:06:59.221Z,31.80
2018-02-05T07:09:26.820Z,30.58
2018-02-05T07:11:55.168Z,31.23
2018-02-05T07:14:22.746Z,30.10
2018-02-05T07:16:50.331Z,30.55
2018-02-05T07:19:18.701Z,32.15
2018-02-05T07:21:47.049Z,33.65
2018-02-05T07:24:14.836Z,32.55
2018-02-05T07:26:43.182Z,30.58
2018-02-05T07:29:10.764Z,30.10
2018-02-05T07:31:38.344Z,29.33
2018-02-05T07:34:06.693Z,26.40
2018-02-05T07:36:34.302Z,26.90
2018-02-05T07:39:01.923Z,26.30
2018-02-05T07:41:29.516Z,25.95
2018-02-05T07:43:57.881Z,24.85
2018-02-05T07:46:26.232Z,25.05
2018-02-05T07:48:53.926Z,23.30
2018-02-05T07:51:22.306Z,23.25
2018-02-05T07:53:50.682Z,23.87
2018-02-05T07:56:19.040Z,22.65
2018-02-05T07:58:46.657Z,22.25
2018-02-05T08:01:14.250Z,23.00
2018-02-05T08:03:41.837Z,20.00
2018-02-05T08:06:09.441Z,23.40
2018-02-05T08:08:37.029Z,26.65
2018-02-05T08:11:04.624Z,25.60
2018-02-05T08:13:32.978Z,22.92
2018-02-05T08:16:00.557Z,21.70
2018-02-05T08:18:28.152Z,20.23
2018-02-05T08:20:55.734Z,16.87
2018-02-05T08:23:23.318Z,18.35
2018-02-05T08:25:50.999Z,17.20
2018-02-05T08:28:20.071Z,16.45
2018-02-05T08:30:47.765Z,16.52
2018-02-05T08:33:16.113Z,16.23
2018-02-05T08:35:43.797Z,16.70
2018-02-05T08:38:11.371Z,15.27
2018-02-05T08:40:39.852Z,18.33
2018-02-05T08:43:08.202Z,23.20
2018-02-05T08:45:35.881Z,24.15
2018-02-05T08:48:04.233Z,19.30
2018-02-05T08:50:31.804Z,16.67
2018-02-05T08:52:59.386Z,17.80
2018-02-05T08:55:27.772Z,17.17
2018-02-05T08:57:56.252Z,19.37
2018-02-05T09:00:24.631Z,18.42
2018-02-05T09:02:53.052Z,20.42
2018-02-05T09:05:23.876Z,20.10
2018-02-05T09:07:51.499Z,19.20
2018-02-05T09:10:19.877Z,22.05
2018-02-05T09:12:48.232Z,17.60
2018-02-05T09:15:15.824Z,15.90
2018-02-05T09:17:44.201Z,17.70
2018-02-05T09:20:12.659Z,16.35
2018-02-05T09:22:40.269Z,16.12
2018-02-05T09:25:07.865Z,17.73
2018-02-05T09:27:35.482Z,18.45
2018-02-05T09:30:03.123Z,18.35
2018-02-05T09:32:31.555Z,14.77
2018-02-05T09:34:59.135Z,14.73
2018-02-05T09:37:26.828Z,13.93
2018-02-05T09:39:54.620Z,13.18
2018-02-05T09:42:22.249Z,11.85
2018-02-05T09:44:50.613Z,12.40
2018-02-05T09:47:18.201Z,12.37
2018-02-05T09:49:46.601Z,10.45
2018-02-05T09:52:14.241Z,10.85
2018-02-05T09:54:42.664Z,11.15
2018-02-05T09:57:10.388Z,12.73
2018-02-05T09:59:41.328Z,10.10
2018-02-05T10:02:08.980Z,10.05
2018-02-05T10:04:37.381Z,10.13
2018-02-05T10:07:05.715Z,10.65
2018-02-05T10:09:33.400Z,9.90
2018-02-05T10:12:01.900Z,10.80
2018-02-05T10:14:30.345Z,9.60
2018-02-05T10:16:58.019Z,10.57
2018-02-05T10:19:26.378Z,9.57
2018-02-05T10:21:54.105Z,9.93
2018-02-05T10:24:22.934Z,9.98
2018-02-05T10:26:51.734Z,9.70
2018-02-05T10:29:21.766Z,9.88
2018-02-05T10:31:50.139Z,9.90
2018-02-05T10:34:18.574Z,10.43
2018-02-05T10:36:46.158Z,9.98
2018-02-05T10:39:14.704Z,9.73
2018-02-05T10:41:42.293Z,9.13
2018-02-05T10:44:09.890Z,9.65
2018-02-05T10:46:38.258Z,10.52
2018-02-05T10:49:06.656Z,10.88
2018-02-05T10:51:34.254Z,9.23
2018-02-05T10:54:02.630Z,10.85
2018-02-05T10:56:30.244Z,9.98
2018-02-05T10:58:58.704Z,8.77
2018-02-05T11:01:26.378Z,9.00
2018-02-05T11:03:54.778Z,9.23
2018-02-05T11:06:22.397Z,9.20
2018-02-05T11:08:50.135Z,9.75
2018-02-05T11:11:17.846Z,10.25
2018-02-05T11:13:46.859Z,9.68
2018-02-05T11:16:14.446Z,9.57
2018-02-05T11:18:42.069Z,12.40
2018-02-05T11:21:10.415Z,9.30
2018-02-05T11:23:38.011Z,8.70
2018-02-05T11:26:06.374Z,9.47
2018-02-05T11:28:34.035Z,9.20
2018-02-05T11:31:01.713Z,9.37
2018-02-05T11:33:30.074Z,9.97
2018-02-05T11:35:57.744Z,8.83
2018-02-05T11:38:25.405Z,9.43
2018-02-05T11:40:53.264Z,10.10
2018-02-05T11:43:21.607Z,10.83
2018-02-05T11:45:49.203Z,10.13
2018-02-05T11:48:16.779Z,8.80
2018-02-05T11:50:45.180Z,8.23
2018-02-05T11:53:12.758Z,6.20
2018-02-05T11:55:40.365Z,6.43
2018-02-05T11:58:07.956Z,6.60
2018-02-05T12:00:35.602Z,7.17
2018-02-05T12:03:03.967Z,5.73
2018-02-05T12:05:31.647Z,6.07
2018-02-05T12:07:59.281Z,5.97
2018-02-05T12:10:27.690Z,6.40
2018-02-05T12:12:56.073Z,6.67
2018-02-05T12:15:23.678Z,6.00
2018-02-05T12:17:51.302Z,5.00
2018-02-05T12:20:19.001Z,4.93
2018-02-05T12:22:46.612Z,5.10
2018-02-05T12:25:15.030Z,5.30
2018-02-05T12:27:42.626Z,4.60
2018-02-05T12:30:10.220Z,4.53
2018-02-05T12:32:38.584Z,4.50
2018-02-05T12:35:06.950Z,4.70
2018-02-05T12:37:34.556Z,7.57
2018-02-05T12:40:02.188Z,5.27
2018-02-05T12:42:30.555Z,4.47
2018-02-05T12:44:58.131Z,4.40
2018-02-05T12:47:26.484Z,4.43
2018-02-05T12:49:54.055Z,4.47
2018-02-05T12:52:21.632Z,4.50
2018-02-05T12:54:55.727Z,4.80
2018-02-05T12:57:23.302Z,5.70
2018-02-05T12:59:54.451Z,4.80
2018-02-05T13:05:31.505Z,3.93
2018-02-05T13:07:59.112Z,4.10
2018-02-05T13:10:27.499Z,4.20
2018-02-05T13:12:55.866Z,4.37
2018-02-05T13:15:24.217Z,4.70
2018-02-05T13:17:51.815Z,3.93
2018-02-05T13:20:19.514Z,4.03
2018-02-05T13:22:47.118Z,4.33
2018-02-05T13:25:14.746Z,4.20
2018-02-05T13:27:42.346Z,4.63
2018-02-05T13:30:10.726Z,4.30
2018-02-05T13:32:39.068Z,4.50
2018-02-05T13:35:06.689Z,4.20
2018-02-05T13:37:34.280Z,4.30
2018-02-05T13:40:01.852Z,4.40
2018-02-05T13:42:29.428Z,4.77
2018-02-05T13:44:57.008Z,4.03
2018-02-05T13:47:25.381Z,3.87
2018-02-05T13:49:53.713Z,4.60
2018-02-05T13:52:21.280Z,4.07
2018-02-05T13:54:50.825Z,4.07
2018-02-05T13:57:19.230Z,5.00
2018-02-05T13:59:46.869Z,4.27
2018-02-05T14:02:15.209Z,4.50
2018-02-05T14:04:42.824Z,4.53
2018-02-05T14:07:11.169Z,4.37
2018-02-05T14:09:38.768Z,4.33
2018-02-05T14:12:06.627Z,4.20
2018-02-05T14:14:34.956Z,4.80
2018-02-05T14:17:02.605Z,5.00
2018-02-05T14:19:30.158Z,4.53
2018-02-05T14:21:57.749Z,4.30
2018-02-05T14:24:25.391Z,4.10
2018-02-05T14:26:52.972Z,3.70
2018-02-05T14:29:20.552Z,4.77
2018-02-05T14:31:48.910Z,3.55
2018-02-05T14:34:16.546Z,6.82
2018-02-05T14:36:44.125Z,4.93
2018-02-05T14:39:11.713Z,3.95
2018-02-05T14:41:40.096Z,3.70
2018-02-05T14:44:08.552Z,4.37
2018-02-05T14:46:36.132Z,4.32
2018-02-05T14:49:04.463Z,4.15
2018-02-05T14:51:32.049Z,4.20
2018-02-05T14:53:59.627Z,4.40
2018-02-05T14:56:28.008Z,4.12
2018-02-05T14:58:56.402Z,5.07
2018-02-05T15:01:24.785Z,4.60
2018-02-05T15:03:53.129Z,4.97
2018-02-05T15:06:20.761Z,5.20
2018-02-05T15:08:48.423Z,5.00
2018-02-05T15:11:16.021Z,4.93
2018-02-05T15:13:45.145Z,4.45
2018-02-05T15:16:12.733Z,3.93
2018-02-05T15:18:40.343Z,4.10
2018-02-05T15:21:08.016Z,3.90
2018-02-05T15:23:36.356Z,3.70
2018-02-05T15:26:03.934Z,3.75
2018-02-05T15:28:32.372Z,3.80
2018-02-05T15:31:00.912Z,3.90
2018-02-05T15:33:29.288Z,3.55
2018-02-05T15:35:57.625Z,3.75
2018-02-05T15:38:25.220Z,3.92
2018-02-05T15:40:52.802Z,3.80
2018-02-05T15:43:21.273Z,4.53
2018-02-05T15:45:48.881Z,4.10
2018-02-05T15:48:16.492Z,4.37
2018-02-05T15:50:44.152Z,5.22
2018-02-05T15:53:12.541Z,4.78
2018-02-05T15:55:40.940Z,5.00
2018-02-05T15:58:08.524Z,5.28
2018-02-05T16:00:36.116Z,5.07
2018-02-05T16:03:03.703Z,5.00
2018-02-05T16:05:32.070Z,6.32
2018-02-05T16:08:00.443Z,6.72
2018-02-05T16:10:28.019Z,6.07
2018-02-05T16:12:56.368Z,5.80
2018-02-05T16:15:23.972Z,5.70
2018-02-05T16:17:51.616Z,6.28
2018-02-05T16:20:19.969Z,6.55
2018-02-05T16:22:47.706Z,6.28
2018-02-05T16:25:15.298Z,5.75
2018-02-05T16:27:42.999Z,6.43
2018-02-05T16:30:10.587Z,6.30
2018-02-05T16:32:38.197Z,6.97
2018-02-05T16:35:06.557Z,7.15
2018-02-05T16:37:34.160Z,8.18
2018-02-05T16:40:01.800Z,8.20
2018-02-05T16:42:30.470Z,7.47
2018-02-05T16:44:58.109Z,8.57
2018-02-05T16:47:25.677Z,7.93
2018-02-05T16:49:53.467Z,6.12
2018-02-05T16:52:21.088Z,6.12
2018-02-05T16:54:49.015Z,5.95
2018-02-05T16:57:16.672Z,6.10
2018-02-05T16:59:45.015Z,6.18
2018-02-05T17:02:12.588Z,6.60
2018-02-05T17:04:40.276Z,6.20
2018-02-05T17:07:08.665Z,6.28
2018-02-05T17:09:36.272Z,6.80
2018-02-05T17:12:03.864Z,7.32
2018-02-05T17:14:32.232Z,7.00
2018-02-05T17:17:00.586Z,7.70
2018-02-05T17:19:28.167Z,7.82
2018-02-05T17:21:56.526Z,7.30
2018-02-05T17:24:24.115Z,7.43
2018-02-05T17:26:52.554Z,7.35
2018-02-05T17:29:20.158Z,7.72
2018-02-05T17:31:47.784Z,7.53
2018-02-05T17:34:15.385Z,8.05
2018-02-05T17:36:43.123Z,7.68
2018-02-05T17:39:10.719Z,7.65
2018-02-05T17:41:39.138Z,7.37
2018-02-05T17:44:10.739Z,7.57
2018-02-05T17:46:39.079Z,7.97
2018-02-05T17:49:06.709Z,7.68
2018-02-05T17:51:35.217Z,8.13
2018-02-05T17:54:02.795Z,8.15
2018-02-05T17:56:30.382Z,8.02
2018-02-05T17:58:58.040Z,8.55
2018-02-05T18:01:25.695Z,8.00
2018-02-05T18:03:53.290Z,8.07
2018-02-05T18:06:21.651Z,7.62
2018-02-05T18:08:49.228Z,7.25
2018-02-05T18:11:18.975Z,12.82
2018-02-05T18:13:46.588Z,6.90
2018-02-05T18:16:14.948Z,6.93
2018-02-05T18:18:42.636Z,7.05
2018-02-05T18:21:11.011Z,6.93
2018-02-05T18:23:39.485Z,7.78
2018-02-05T18:26:07.121Z,6.87
2018-02-05T18:28:36.365Z,7.55
2018-02-05T18:31:04.744Z,7.97
2018-02-05T18:33:33.088Z,6.90
2018-02-05T18:36:00.969Z,8.18
2018-02-05T18:38:28.586Z,8.50
2018-02-05T18:40:56.491Z,8.18
2018-02-05T18:43:24.090Z,8.80
2018-02-05T18:45:51.677Z,8.43
2018-02-05T18:48:19.321Z,8.35
2018-02-05T18:50:46.903Z,8.95
2018-02-05T18:53:14.482Z,8.65
2018-02-05T18:55:42.781Z,12.75
2018-02-05T18:58:11.147Z,37.05
2018-02-05T19:00:48.546Z,11.05
2018-02-05T19:03:16.893Z,10.20
2018-02-05T19:05:44.489Z,9.63
2018-02-05T19:08:12.888Z,9.27
2018-02-05T19:10:40.531Z,8.73
2018-02-05T19:13:09.583Z,10.95
2018-02-05T19:15:37.193Z,14.57
2018-02-05T19:18:05.560Z,12.37
2018-02-05T19:20:33.156Z,10.80
2018-02-05T19:23:00.746Z,11.73
2018-02-05T19:25:28.374Z,11.02
2018-02-05T19:27:55.964Z,10.90
2018-02-05T19:30:23.574Z,11.05
2018-02-05T19:32:51.944Z,10.65
2018-02-05T19:35:20.474Z,10.80
2018-02-05T19:37:48.103Z,10.35
2018-02-05T19:40:15.723Z,10.90
2018-02-05T19:42:43.321Z,12.02
2018-02-05T19:45:11.683Z,10.73
2018-02-05T19:47:39.343Z,11.85
2018-02-05T19:50:07.692Z,12.37
2018-02-05T19:52:35.276Z,12.82
2018-02-05T19:55:09.034Z,11.55
2018-02-05T19:57:36.659Z,11.38
2018-02-05T20:00:05.028Z,11.25
2018-02-05T20:02:32.619Z,11.18
2018-02-05T20:05:00.260Z,11.12
2018-02-05T20:07:28.633Z,12.02
2018-02-05T20:09:57.725Z,13.77
2018-02-05T20:12:25.333Z,14.43
2018-02-05T20:14:55.693Z,15.82
2018-02-05T20:17:23.291Z,19.55
2018-02-05T20:19:51.796Z,17.02
2018-02-05T20:22:19.405Z,14.90
2018-02-05T20:24:47.815Z,14.55
2018-02-05T20:27:16.313Z,13.88
2018-02-05T20:29:43.964Z,12.75
2018-02-05T20:32:11.657Z,11.77
2018-02-05T20:34:39.242Z,12.27
2018-02-05T20:37:06.880Z,12.93
2018-02-05T20:39:34.462Z,13.57
2018-02-05T20:42:02.057Z,14.10
2018-02-05T20:44:30.415Z,15.82
2018-02-05T20:46:58.011Z,15.30
2018-02-05T20:49:25.630Z,15.77
2018-02-05T20:51:53.557Z,14.40
2018-02-05T20:54:22.093Z,15.75
2018-02-05T20:56:50.104Z,13.98
2018-02-05T20:59:18.501Z,12.18
2018-02-05T21:01:46.090Z,12.25
2018-02-05T21:04:13.678Z,13.10
2018-02-05T21:06:42.058Z,14.20
2018-02-05T21:09:10.219Z,14.13
2018-02-05T21:11:37.989Z,15.27
2018-02-05T21:14:06.354Z,14.60
2018-02-05T21:16:33.940Z,13.52
2018-02-05T21:19:02.366Z,13.70
2018-02-05T21:21:30.028Z,16.73
2018-02-05T21:23:57.627Z,15.25
2018-02-05T21:26:25.224Z,14.15
2018-02-05T21:28:52.809Z,14.73
2018-02-05T21:31:20.412Z,14.80
2018-02-05T21:33:48.066Z,14.48
2018-02-05T21:36:15.673Z,15.60
2018-02-05T21:38:43.314Z,15.00
2018-02-05T21:41:10.965Z,14.30
2018-02-05T21:43:39.355Z,15.00
2018-02-05T21:46:06.948Z,14.65
2018-02-05T21:48:34.602Z,14.77
2018-02-05T21:51:02.318Z,15.38
2018-02-05T21:53:30.053Z,14.77
2018-02-05T21:55:57.647Z,15.60
2018-02-05T21:58:26.887Z,15.88
2018-02-05T22:00:55.114Z,16.50
2018-02-05T22:03:22.761Z,16.23
2018-02-05T22:05:50.404Z,14.98
2018-02-05T22:08:18.024Z,18.65
2018-02-05T22:10:45.660Z,19.17
2018-02-05T22:13:13.264Z,19.83
2018-02-05T22:15:40.856Z,17.67
2018-02-05T22:18:08.492Z,17.45
2018-02-05T22:20:36.111Z,17.60
2018-02-05T22:23:05.015Z,17.37
2018-02-05T22:25:33.482Z,18.10
2018-02-05T22:28:01.920Z,23.73
2018-02-05T22:30:29.645Z,19.02
2018-02-05T22:32:58.028Z,15.98
2018-02-05T22:35:25.603Z,15.48
2018-02-05T22:37:53.242Z,17.12
2018-02-05T22:40:21.582Z,17.40
2018-02-05T22:42:49.221Z,16.85
2018-02-05T22:45:16.822Z,17.05
2018-02-05T22:47:44.417Z,15.43
2018-02-05T22:50:12.006Z,15.93
2018-02-05T22:52:39.603Z,15.70
2018-02-05T22:55:08.362Z,15.75
2018-02-05T22:57:36.022Z,15.65
2018-02-05T23:00:03.608Z,16.87
2018-02-05T23:02:31.249Z,17.80
2018-02-05T23:04:58.870Z,20.52
2018-02-05T23:07:26.460Z,19.70
2018-02-05T23:09:54.863Z,20.17
2018-02-05T23:12:22.469Z,18.52
2018-02-05T23:14:50.074Z,17.10
2018-02-05T23:17:17.648Z,15.43
2018-02-05T23:19:46.432Z,18.37
2018-02-05T23:22:14.072Z,19.30
2018-02-05T23:24:41.745Z,18.50
2018-02-05T23:27:09.357Z,18.02
2018-02-05T23:29:36.956Z,17.23
2018-02-05T23:32:04.647Z,18.08
2018-02-05T23:34:32.232Z,18.00
2018-02-05T23:37:00.666Z,20.52
2018-02-05T23:39:28.247Z,24.12
2018-02-05T23:41:55.831Z,18.15
2018-02-05T23:44:24.262Z,16.90
2018-02-05T23:46:51.869Z,15.90
2018-02-05T23:49:19.524Z,16.90
2018-02-05T23:51:47.137Z,17.02
2018-02-05T23:54:14.738Z,17.70
2018-02-05T23:56:42.331Z,17.70
2018-02-05T23:59:09.914Z,17.12
